Time;durP1;ratioP1;P1;durP2;ratioP2;P2;SDS_P1;SDS_P2;PMS_P1;PMS_P2;Temp;Humidity;BMP_temperature;BMP_pressure;BME280_temperature;BME280_humidity;BME280_pressure;Samples;Min_cycle;Max_cycle;Signal;HPM_P1;HPM_P2
2023/10/19 00:00:18;;;;;;;3.78;3.10;;;17.50;73.40;;;;;;4935694;29;20043;-26
2023/10/19 00:02:47;;;;;;;3.53;2.90;;;17.40;81.10;;;;;;4935873;29;20056;-26
2023/10/19 00:05:15;;;;;;;3.58;3.17;;;17.50;80.90;;;;;;4935486;29;20047;-26
2023/10/19 00:07:42;;;;;;;3.95;3.17;;;;;;;;;;4935601;29;20531;-29
2023/10/19 00:10:09;;;;;;;3.80;3.30;;;;;;;;;;4935479;29;20086;-29
2023/10/19 00:12:36;;;;;;;5.45;3.70;;;17.40;81.70;;;;;;4935025;29;20054;-26
2023/10/19 00:15:04;;;;;;;3.75;3.22;;;;;;;;;;4935581;29;20564;-28
2023/10/19 00:17:32;;;;;;;4.05;3.22;;;;;;;;;;4935543;29;20048;-27
2023/10/19 00:20:27;;;;;;;4.55;3.47;;;17.80;66.00;;;;;;4935634;29;20556;-27
2023/10/19 00:22:53;;;;;;;4.63;3.35;;;;;;;;;;4934865;29;20055;-29
2023/10/19 00:25:23;;;;;;;3.75;3.05;;;;;;;;;;4935115;29;20047;-26
2023/10/19 00:27:50;;;;;;;4.32;3.30;;;17.70;81.40;;;;;;4935220;29;20106;-27
2023/10/19 00:30:23;;;;;;;3.83;3.13;;;;;;;;;;4934016;29;20091;-29
2023/10/19 00:32:50;;;;;;;4.15;3.20;;;18.20;81.60;;;;;;4935064;29;20056;-26
2023/10/19 00:35:28;;;;;;;3.65;3.28;;;17.90;61.60;;;;;;4935299;29;20394;-28
2023/10/19 00:38:12;;;;;;;4.35;3.38;;;17.80;61.60;;;;;;4934511;29;20059;-26
2023/10/19 00:40:40;;;;;;;5.40;3.30;;;17.80;74.00;;;;;;4916012;29;20080;-27
2023/10/19 00:43:10;;;;;;;3.97;3.17;;;18.00;81.50;;;;;;4916339;29;20056;-26
2023/10/19 00:45:39;;;;;;;4.28;3.30;;;18.00;81.20;;;;;;4916090;29;20052;-26
2023/10/19 00:48:08;;;;;;;4.43;3.47;;;17.60;78.30;;;;;;4934535;29;20058;-27
2023/10/19 00:50:37;;;;;;;4.68;3.35;;;17.80;61.60;;;;;;4953873;28;20049;-26
2023/10/19 00:53:07;;;;;;;4.85;3.50;;;17.50;67.50;;;;;;4954222;28;20051;-26
2023/10/19 00:55:34;;;;;;;4.30;3.30;;;;;;;;;;4939962;28;20051;-28
2023/10/19 00:58:09;;;;;;;4.75;3.40;;;18.80;71.40;;;;;;4934815;29;20524;-26
2023/10/19 01:00:43;;;;;;;5.82;3.10;;;17.70;81.30;;;;;;4934913;29;20652;-26
2023/10/19 01:03:11;;;;;;;5.47;3.22;;;18.40;81.20;;;;;;4934966;29;20052;-26
2023/10/19 01:05:39;;;;;;;3.97;3.13;;;17.10;80.70;;;;;;4934703;29;20398;-26
2023/10/19 01:08:13;;;;;;;4.00;3.20;;;17.80;80.90;;;;;;4934887;29;20110;-26
2023/10/19 01:10:42;;;;;;;4.18;3.20;;;;;;;;;;4934230;29;20445;-29
2023/10/19 01:13:12;;;;;;;3.90;3.50;;;18.10;73.40;;;;;;4933209;29;20083;-26
2023/10/19 01:15:40;;;;;;;4.18;3.20;;;;;;;;;;4934584;29;20134;-29
2023/10/19 01:18:10;;;;;;;4.45;3.38;;;17.60;81.10;;;;;;4934908;29;20078;-27
2023/10/19 01:20:50;;;;;;;4.25;3.50;;;17.50;74.50;;;;;;4934265;29;20047;-26
2023/10/19 01:23:27;;;;;;;4.40;3.55;;;17.80;61.70;;;;;;4934404;29;20466;-28
2023/10/19 01:26:05;;;;;;;4.20;3.50;;;17.50;81.10;;;;;;4934505;29;20091;-26
2023/10/19 01:28:43;;;;;;;3.72;3.10;;;18.40;82.00;;;;;;4939134;29;20497;-26
2023/10/19 01:31:14;;;;;;;4.35;3.35;;;17.50;77.50;;;;;;4953513;28;20047;-27
2023/10/19 01:33:42;;;;;;;4.35;3.25;;;;;;;;;;4953733;28;20063;-29
2023/10/19 01:36:14;;;;;;;4.07;3.40;;;;;;;;;;4950205;28;20146;-29
2023/10/19 01:38:41;;;;;;;3.83;3.13;;;17.70;81.20;;;;;;4934707;29;20122;-26
2023/10/19 01:41:13;;;;;;;4.15;3.25;;;18.00;81.10;;;;;;4934326;29;20131;-26
2023/10/19 01:43:40;;;;;;;3.83;2.90;;;17.70;69.30;;;;;;4934199;29;20122;-27
2023/10/19 01:46:11;;;;;;;3.45;3.10;;;18.10;62.20;;;;;;4934447;29;20051;-26
2023/10/19 01:48:40;;;;;;;5.00;3.13;;;17.10;72.10;;;;;;4947799;29;20047;-26
2023/10/19 01:51:07;;;;;;;4.82;3.38;;;18.00;81.20;;;;;;4953656;28;20492;-27
2023/10/19 01:53:35;;;;;;;3.65;3.22;;;;;;;;;;4953528;28;20493;-29
2023/10/19 01:56:05;;;;;;;4.05;3.20;;;18.10;61.60;;;;;;4953658;28;20047;-29
2023/10/19 01:58:36;;;;;;;3.47;3.17;;;;;;;;;;4953673;28;20404;-29
2023/10/19 02:01:06;;;;;;;4.55;3.60;;;18.00;81.00;;;;;;4936453;28;20060;-26
2023/10/19 02:03:33;;;;;;;5.05;3.22;;;18.10;81.50;;;;;;4934364;29;20071;-26
2023/10/19 02:05:59;;;;;;;4.20;3.20;;;17.20;80.60;;;;;;4934347;29;20084;-26
2023/10/19 02:08:26;;;;;;;4.22;3.17;;;;;;;;;;4934325;29;20079;-27
2023/10/19 02:10:53;;;;;;;3.70;3.20;;;18.00;81.40;;;;;;4932730;29;20417;-27
2023/10/19 02:13:22;;;;;;;5.18;3.67;;;18.20;61.50;;;;;;4934033;29;20119;-26
2023/10/19 02:15:49;;;;;;;4.88;3.33;;;;;;;;;;4933753;29;20485;-27
2023/10/19 02:18:17;;;;;;;4.30;3.30;;;18.80;81.30;;;;;;4934099;29;20054;-26
2023/10/19 02:20:48;;;;;;;5.45;3.13;;;;;;;;;;4932926;29;20522;-26
2023/10/19 02:23:15;;;;;;;4.03;3.17;;;;;;;;;;4934393;29;20048;-29
2023/10/19 02:25:42;;;;;;;4.40;3.08;;;18.10;80.70;;;;;;4933808;29;20080;-26
2023/10/19 02:28:09;;;;;;;4.10;3.30;;;;;;;;;;4933863;29;20139;-28
2023/10/19 02:30:37;;;;;;;3.72;2.92;;;18.20;62.30;;;;;;4934335;29;20431;-26
2023/10/19 02:33:06;;;;;;;3.20;2.90;;;18.20;80.50;;;;;;4933098;29;20059;-26
2023/10/19 02:35:31;;;;;;;4.10;3.08;;;18.30;67.50;;;;;;4936106;29;20063;-26
2023/10/19 02:37:59;;;;;;;3.83;3.05;;;18.40;80.70;;;;;;4936926;29;20044;-26
2023/10/19 02:40:25;;;;;;;3.50;2.80;;;17.70;73.30;;;;;;4937614;29;20052;-27
2023/10/19 02:42:53;;;;;;;3.72;3.00;;;18.50;68.60;;;;;;4937003;29;20131;-26
2023/10/19 02:45:20;;;;;;;4.20;3.20;;;19.40;81.40;;;;;;4936496;29;20048;-27
2023/10/19 02:47:47;;;;;;;3.63;3.05;;;18.60;80.50;;;;;;4943755;29;20055;-26
2023/10/19 02:50:16;;;;;;;3.67;2.90;;;18.60;80.50;;;;;;4956393;28;20043;-26
2023/10/19 02:52:43;;;;;;;3.50;2.85;;;18.90;81.60;;;;;;4956086;28;20047;-30
2023/10/19 02:55:10;;;;;;;3.70;2.83;;;18.60;61.10;;;;;;4956060;28;20045;-29
2023/10/19 02:57:37;;;;;;;3.35;3.00;;;;;;;;;;4953761;28;20059;-29
2023/10/19 03:00:11;;;;;;;3.90;3.17;;;18.70;61.00;;;;;;4936713;29;20487;-28
2023/10/19 03:02:37;;;;;;;3.25;2.78;;;;;;;;;;4936804;29;20051;-30
2023/10/19 03:05:13;;;;;;;3.38;2.70;;;18.70;61.00;;;;;;4937086;29;20050;-30
2023/10/19 03:07:39;;;;;;;3.15;2.75;;;18.50;68.40;;;;;;4936564;29;20051;-29
2023/10/19 03:10:07;;;;;;;3.58;2.80;;;18.70;61.00;;;;;;4936813;29;20051;-28
2023/10/19 03:12:35;;;;;;;3.67;3.00;;;;;;;;;;4936647;29;20052;-27
2023/10/19 03:15:03;;;;;;;4.47;3.38;;;;;;;;;;4936603;29;20051;-29
2023/10/19 03:17:30;;;;;;;4.07;3.00;;;18.80;75.80;;;;;;4936113;29;20501;-29
2023/10/19 03:19:57;;;;;;;3.78;2.92;;;19.40;73.60;;;;;;4936390;29;20106;-29
2023/10/19 03:22:24;;;;;;;3.75;3.00;;;18.70;80.50;;;;;;4936289;29;20406;-29
2023/10/19 03:24:59;;;;;;;3.45;2.60;;;19.50;81.00;;;;;;4936606;29;20047;-29
2023/10/19 03:27:25;;;;;;;2.90;2.60;;;18.70;80.00;;;;;;4936307;29;20055;-29
2023/10/19 03:29:55;;;;;;;3.75;2.95;;;20.10;80.50;;;;;;4936222;29;20409;-29
2023/10/19 03:32:26;;;;;;;3.22;2.70;;;19.00;80.50;;;;;;4936234;29;20048;-30
2023/10/19 03:34:55;;;;;;;3.05;2.75;;;20.20;80.40;;;;;;4936424;29;20126;-30
2023/10/19 03:37:22;;;;;;;3.25;2.85;;;19.60;79.90;;;;;;4936075;29;20070;-30
2023/10/19 03:39:51;;;;;;;3.50;2.72;;;18.90;60.80;;;;;;4936017;29;20138;-28
2023/10/19 03:42:20;;;;;;;3.30;2.78;;;18.70;79.70;;;;;;4936294;29;20058;-29
2023/10/19 03:44:53;;;;;;;3.35;2.97;;;18.90;60.80;;;;;;4935947;29;20059;-29
2023/10/19 03:47:25;;;;;;;5.28;2.83;;;;;;;;;;4939653;29;20079;-30
2023/10/19 03:49:52;;;;;;;3.40;3.10;;;20.20;69.10;;;;;;4955319;28;20134;-30
2023/10/19 03:52:21;;;;;;;5.30;2.53;;;19.30;80.50;;;;;;4955169;28;20046;-30
2023/10/19 03:54:50;;;;;;;3.97;3.13;;;18.70;80.30;;;;;;4939441;28;20057;-29
2023/10/19 03:57:20;;;;;;;3.20;2.67;;;20.10;80.90;;;;;;4936123;29;20056;-29
2023/10/19 03:59:49;;;;;;;3.85;2.97;;;20.10;81.00;;;;;;4935656;29;20056;-29
2023/10/19 04:02:20;;;;;;;3.17;2.67;;;18.70;77.90;;;;;;4935753;29;20064;-29
2023/10/19 04:04:48;;;;;;;3.03;2.70;;;17.70;78.90;;;;;;4935868;29;20560;-29
2023/10/19 04:07:20;;;;;;;3.42;2.60;;;20.30;79.20;;;;;;4935456;29;20512;-29
2023/10/19 04:09:59;;;;;;;3.53;2.70;;;;;;;;;;4935424;29;20079;-29
2023/10/19 04:12:30;;;;;;;2.65;2.40;;;19.30;64.70;;;;;;4935358;29;20059;-29
2023/10/19 04:14:57;;;;;;;3.75;2.55;;;;;;;;;;4935880;29;20055;-30
2023/10/19 04:17:25;;;;;;;3.45;2.67;;;19.80;67.30;;;;;;4935692;29;20091;-29
2023/10/19 04:19:52;;;;;;;3.45;2.85;;;18.80;79.80;;;;;;4935996;29;20509;-30
2023/10/19 04:22:23;;;;;;;3.90;2.90;;;18.80;79.30;;;;;;4934292;29;20572;-30
2023/10/19 04:24:50;;;;;;;2.85;2.42;;;18.80;79.30;;;;;;4935497;29;20099;-29
2023/10/19 04:27:16;;;;;;;2.65;2.45;;;19.50;64.00;;;;;;4935435;29;20111;-29
2023/10/19 04:29:45;;;;;;;2.80;2.50;;;20.40;80.70;;;;;;4935519;29;20051;-29
2023/10/19 04:32:14;;;;;;;2.60;2.30;;;19.50;79.80;;;;;;4935104;29;20052;-29
2023/10/19 04:34:41;;;;;;;4.22;2.60;;;;;;;;;;4935095;29;20047;-29
2023/10/19 04:37:12;;;;;;;3.42;2.47;;;;;;;;;;4934648;29;20051;-27
2023/10/19 04:39:39;;;;;;;3.35;2.40;;;19.20;66.30;;;;;;4935176;29;20051;-29
2023/10/19 04:42:06;;;;;;;2.92;2.40;;;19.00;80.00;;;;;;4935204;29;20058;-30
2023/10/19 04:44:34;;;;;;;2.80;2.40;;;19.60;80.10;;;;;;4935020;29;20048;-30
2023/10/19 04:47:02;;;;;;;2.88;2.35;;;19.00;60.90;;;;;;4935097;29;20052;-28
2023/10/19 04:49:29;;;;;;;2.63;2.25;;;;;;;;;;4934979;29;20492;-28
2023/10/19 04:51:56;;;;;;;3.67;2.38;;;18.80;79.50;;;;;;4934684;29;20212;-30
2023/10/19 04:54:23;;;;;;;3.10;2.30;;;18.10;79.00;;;;;;4934990;29;20056;-30
2023/10/19 04:56:50;;;;;;;2.80;2.30;;;18.90;68.70;;;;;;4934620;29;20052;-29
2023/10/19 04:59:16;;;;;;;2.53;1.90;;;19.40;68.80;;;;;;4935051;29;20071;-30
2023/10/19 05:01:43;;;;;;;2.70;2.20;;;;;;;;;;4934605;29;20079;-28
2023/10/19 05:04:12;;;;;;;2.60;2.03;;;18.80;80.60;;;;;;4934669;29;20106;-29
2023/10/19 05:06:39;;;;;;;3.05;2.25;;;18.90;80.70;;;;;;4934474;29;20055;-30
2023/10/19 05:09:06;;;;;;;2.80;2.50;;;19.40;74.40;;;;;;4934643;29;20080;-29
2023/10/19 05:11:33;;;;;;;2.33;2.05;;;19.40;80.90;;;;;;4934798;29;20091;-29
2023/10/19 05:14:00;;;;;;;2.92;2.15;;;;;;;;;;4934608;29;20107;-29
2023/10/19 05:16:27;;;;;;;3.00;2.00;;;18.90;79.80;;;;;;4934473;29;20119;-29
2023/10/19 05:18:53;;;;;;;2.85;2.25;;;18.90;80.70;;;;;;4934417;29;20056;-29
2023/10/19 05:21:21;;;;;;;2.70;2.30;;;19.10;71.70;;;;;;4934680;29;20149;-29
2023/10/19 05:23:49;;;;;;;2.00;1.80;;;;;;;;;;4934828;29;20060;-29
2023/10/19 05:26:15;;;;;;;2.40;1.90;;;18.80;80.20;;;;;;4934496;29;20568;-29
2023/10/19 05:28:43;;;;;;;2.65;2.10;;;;;;;;;;4934306;29;20063;-29
2023/10/19 05:31:11;;;;;;;1.98;1.77;;;19.10;79.90;;;;;;4933890;29;20502;-29
2023/10/19 05:33:39;;;;;;;2.47;2.08;;;;;;;;;;4934019;29;20090;-28
2023/10/19 05:36:06;;;;;;;2.97;2.03;;;19.20;80.60;;;;;;4934060;29;20576;-29
2023/10/19 05:38:34;;;;;;;2.35;1.85;;;19.00;63.80;;;;;;4934459;29;20060;-28
2023/10/19 05:41:01;;;;;;;2.20;1.90;;;19.10;71.40;;;;;;4934675;29;20055;-29
2023/10/19 05:43:28;;;;;;;2.17;1.88;;;18.40;76.70;;;;;;4934444;29;20110;-29
2023/10/19 05:45:56;;;;;;;2.00;1.80;;;18.90;79.30;;;;;;4933971;29;20413;-29
2023/10/19 05:48:24;;;;;;;2.30;1.80;;;;;;;;;;4936735;29;20044;-29
2023/10/19 05:50:51;;;;;;;1.88;1.50;;;;;;;;;;4934675;29;20055;-28
2023/10/19 05:53:18;;;;;;;2.30;1.80;;;19.00;79.40;;;;;;4934269;29;20123;-29
2023/10/19 05:55:47;;;;;;;1.85;1.60;;;18.80;70.30;;;;;;4928462;29;20408;-29
2023/10/19 05:58:14;;;;;;;2.08;1.70;;;19.20;70.70;;;;;;4917195;29;20470;-29
2023/10/19 06:00:41;;;;;;;2.00;1.58;;;;;;;;;;4934381;29;20176;-29
2023/10/19 06:03:09;;;;;;;2.00;1.77;;;19.60;80.30;;;;;;4934253;29;20063;-29
2023/10/19 06:05:36;;;;;;;1.80;1.60;;;19.00;80.30;;;;;;4934615;29;20127;-29
2023/10/19 06:08:04;;;;;;;2.08;1.60;;;18.80;79.70;;;;;;4934713;29;20063;-29
2023/10/19 06:10:32;;;;;;;1.88;1.60;;;19.20;80.30;;;;;;4938180;29;20052;-29
2023/10/19 06:13:00;;;;;;;1.70;1.33;;;19.20;60.80;;;;;;4937543;29;20087;-27
2023/10/19 06:15:28;;;;;;;1.70;1.40;;;19.00;79.40;;;;;;4937960;29;20056;-27
2023/10/19 06:17:55;;;;;;;2.03;1.60;;;19.20;79.40;;;;;;4937888;29;20453;-27
2023/10/19 06:20:26;;;;;;;1.50;1.40;;;18.10;60.20;;;;;;4937879;29;20580;-28
2023/10/19 06:22:53;;;;;;;1.95;1.50;;;19.80;66.70;;;;;;4937515;29;20071;-29
2023/10/19 06:25:21;;;;;;;1.55;1.27;;;;;;;;;;4937291;29;20047;-28
2023/10/19 06:27:48;;;;;;;1.60;1.30;;;18.50;79.50;;;;;;4936813;29;20050;-29
2023/10/19 06:30:18;;;;;;;1.40;1.20;;;19.30;79.70;;;;;;4937032;29;20122;-29
2023/10/19 06:32:47;;;;;;;1.55;1.40;;;19.50;79.50;;;;;;4932264;29;20075;-29
2023/10/19 06:35:14;;;;;;;1.30;1.20;;;;;;;;;;4934522;29;20052;-28
2023/10/19 06:37:41;;;;;;;1.63;1.30;;;19.50;79.30;;;;;;4937046;29;20039;-29
2023/10/19 06:40:11;;;;;;;1.20;1.10;;;19.60;79.40;;;;;;4937249;29;20095;-29
2023/10/19 06:42:38;;;;;;;1.50;1.30;;;19.80;80.30;;;;;;4935502;29;20052;-29
2023/10/19 06:45:07;;;;;;;1.20;1.10;;;19.70;60.40;;;;;;4933282;29;20075;-28
2023/10/19 06:47:37;;;;;;;1.20;1.10;;;19.70;60.40;;;;;;4942340;29;20050;-29
2023/10/19 06:50:07;;;;;;;1.83;1.30;;;20.30;79.90;;;;;;4955572;28;20051;-26
2023/10/19 06:52:35;;;;;;;1.13;1.02;;;19.70;63.40;;;;;;4954038;28;20054;-27
2023/10/19 06:55:03;;;;;;;2.00;1.10;;;18.90;78.50;;;;;;4942717;28;20134;-27
2023/10/19 06:57:30;;;;;;;1.17;1.00;;;19.80;79.00;;;;;;4936493;29;20457;-26
2023/10/19 06:59:57;;;;;;;1.20;1.10;;;20.90;74.70;;;;;;4936016;29;20126;-26
2023/10/19 07:02:24;;;;;;;1.63;1.20;;;19.60;62.70;;;;;;4935813;29;20382;-27
2023/10/19 07:04:52;;;;;;;1.83;1.30;;;19.90;60.30;;;;;;4936959;29;20413;-28
2023/10/19 07:07:19;;;;;;;1.17;1.08;;;;;;;;;;4936862;29;20115;-28
2023/10/19 07:09:46;;;;;;;1.42;1.20;;;20.10;79.40;;;;;;4936675;29;20482;-30
2023/10/19 07:12:13;;;;;;;1.20;1.10;;;20.70;80.20;;;;;;4936636;29;20079;-30
2023/10/19 07:14:40;;;;;;;2.50;1.08;;;;;;;;;;4937010;29;20055;-30
2023/10/19 07:17:08;;;;;;;1.13;1.02;;;;;;;;;;4936700;29;20083;-29
2023/10/19 07:19:34;;;;;;;0.85;0.85;;;20.00;78.90;;;;;;4936527;29;20055;-30
2023/10/19 07:22:04;;;;;;;1.25;1.00;;;20.00;60.20;;;;;;4935975;29;20044;-27
2023/10/19 07:24:31;;;;;;;0.93;0.90;;;20.80;79.90;;;;;;4936977;29;20055;-30
2023/10/19 07:27:07;;;;;;;1.30;1.05;;;;;;;;;;4936380;29;20063;-30
2023/10/19 07:29:35;;;;;;;1.17;1.08;;;19.80;76.00;;;;;;4936801;29;20432;-30
2023/10/19 07:32:04;;;;;;;1.00;0.90;;;20.00;78.90;;;;;;4936381;29;20142;-29
2023/10/19 07:34:33;;;;;;;1.00;0.90;;;19.90;79.00;;;;;;4936526;29;20055;-30
2023/10/19 07:36:59;;;;;;;0.90;0.90;;;20.50;79.10;;;;;;4935601;29;20146;-30
2023/10/19 07:39:29;;;;;;;0.90;0.90;;;19.10;70.10;;;;;;4936542;29;20062;-30
2023/10/19 07:41:56;;;;;;;1.23;1.10;;;19.30;64.50;;;;;;4936483;29;20052;-29
2023/10/19 07:44:23;;;;;;;0.90;0.90;;;20.40;78.90;;;;;;4936202;29;20582;-30
2023/10/19 07:46:50;;;;;;;1.75;1.00;;;21.40;62.80;;;;;;4936363;29;20412;-29
2023/10/19 07:49:17;;;;;;;1.02;0.95;;;20.10;78.30;;;;;;4935791;29;20529;-30
2023/10/19 07:51:47;;;;;;;1.15;0.88;;;20.30;79.60;;;;;;4935840;29;20052;-30
2023/10/19 07:54:14;;;;;;;1.30;1.00;;;20.00;79.10;;;;;;4936164;29;20052;-26
2023/10/19 07:56:42;;;;;;;1.38;1.10;;;19.60;60.70;;;;;;4935980;29;20107;-27
2023/10/19 07:59:09;;;;;;;1.00;0.90;;;19.60;69.80;;;;;;4936055;29;20151;-26
2023/10/19 08:01:36;;;;;;;1.42;1.00;;;19.50;78.90;;;;;;4935847;29;20055;-26
2023/10/19 08:04:03;;;;;;;1.88;0.90;;;;;;;;;;4935750;29;20146;-29
2023/10/19 08:06:31;;;;;;;1.00;0.90;;;19.90;78.40;;;;;;4935814;29;20055;-26
2023/10/19 08:08:59;;;;;;;0.93;0.90;;;;;;;;;;4936039;29;20052;-26
2023/10/19 08:11:26;;;;;;;0.82;0.82;;;21.30;79.20;;;;;;4935632;29;20099;-26
2023/10/19 08:13:55;;;;;;;0.98;0.80;;;20.00;78.70;;;;;;4935787;29;20102;-26
2023/10/19 08:16:22;;;;;;;1.00;0.90;;;19.90;74.30;;;;;;4935663;29;20520;-27
2023/10/19 08:18:49;;;;;;;0.98;0.90;;;;;;;;;;4935189;29;20453;-28
2023/10/19 08:21:17;;;;;;;1.23;1.08;;;19.80;79.60;;;;;;4935798;29;20091;-26
2023/10/19 08:23:45;;;;;;;0.75;0.75;;;19.10;78.30;;;;;;4934740;29;20580;-26
2023/10/19 08:26:11;;;;;;;0.93;0.90;;;19.70;71.10;;;;;;4935459;29;20051;-27
2023/10/19 08:28:38;;;;;;;0.93;0.80;;;21.00;79.50;;;;;;4935270;29;20044;-27
2023/10/19 08:31:10;;;;;;;1.00;0.80;;;19.90;78.50;;;;;;4935141;29;20051;-26
2023/10/19 08:33:38;;;;;;;0.93;0.88;;;;;;;;;;4934943;29;20080;-26
2023/10/19 08:36:06;;;;;;;0.80;0.80;;;19.90;78.90;;;;;;4934522;29;20056;-26
2023/10/19 08:38:33;;;;;;;0.68;0.68;;;19.90;78.40;;;;;;4934491;29;20154;-26
2023/10/19 08:41:00;;;;;;;0.70;0.70;;;;;;;;;;4935292;29;20062;-27
2023/10/19 08:43:28;;;;;;;1.13;0.95;;;20.40;79.50;;;;;;4934881;29;20052;-26
2023/10/19 08:45:55;;;;;;;0.90;0.80;;;19.80;79.60;;;;;;4935406;29;20052;-26
2023/10/19 08:48:23;;;;;;;1.13;0.90;;;19.80;60.10;;;;;;4946741;29;20051;-29
2023/10/19 08:50:50;;;;;;;1.33;0.88;;;;;;;;;;4946880;28;20416;-29
2023/10/19 08:53:19;;;;;;;0.70;0.70;;;19.50;78.60;;;;;;4935151;29;20083;-26
2023/10/19 08:55:48;;;;;;;0.77;0.75;;;19.80;78.50;;;;;;4934858;29;20086;-26
2023/10/19 08:58:15;;;;;;;0.77;0.77;;;;;;;;;;4934974;29;20497;-27
2023/10/19 09:00:48;;;;;;;1.38;0.85;;;19.80;60.20;;;;;;4935247;29;20055;-29
2023/10/19 09:03:16;;;;;;;0.82;0.80;;;19.80;79.10;;;;;;4934693;29;20103;-27
2023/10/19 09:05:46;;;;;;;0.93;0.90;;;19.80;60.20;;;;;;4935051;29;20055;-27
2023/10/19 09:08:17;;;;;;;0.98;0.90;;;19.80;68.50;;;;;;4934561;29;20048;-27
2023/10/19 09:10:46;;;;;;;0.85;0.80;;;19.70;78.50;;;;;;4934987;29;20062;-26
2023/10/19 09:13:15;;;;;;;0.82;0.82;;;;;;;;;;4934920;29;20517;-29
2023/10/19 09:15:42;;;;;;;1.00;0.90;;;;;;;;;;4934969;29;20043;-27
2023/10/19 09:18:15;;;;;;;0.85;0.85;;;19.50;70.20;;;;;;4934669;29;20090;-27
2023/10/19 09:20:52;;;;;;;0.77;0.77;;;19.40;79.20;;;;;;4934811;29;20057;-26
2023/10/19 09:23:21;;;;;;;0.80;0.80;;;19.80;78.90;;;;;;4934621;29;20134;-27
2023/10/19 09:25:49;;;;;;;0.93;0.90;;;19.80;79.40;;;;;;4934524;29;20048;-26
2023/10/19 09:28:17;;;;;;;0.77;0.77;;;20.70;79.50;;;;;;4934508;29;20071;-26
2023/10/19 09:30:44;;;;;;;1.00;0.90;;;20.00;65.80;;;;;;4934753;29;20048;-27
2023/10/19 09:33:12;;;;;;;1.00;0.90;;;19.30;79.20;;;;;;4934491;29;20086;-26
2023/10/19 09:35:38;;;;;;;0.82;0.80;;;19.50;78.90;;;;;;4934872;29;20055;-27
2023/10/19 09:38:06;;;;;;;0.80;0.80;;;;;;;;;;4934048;29;20525;-29
2023/10/19 09:40:34;;;;;;;0.80;0.80;;;19.90;79.40;;;;;;4933880;29;20091;-27
2023/10/19 09:43:02;;;;;;;1.00;0.90;;;19.50;78.90;;;;;;4934642;29;20521;-27
2023/10/19 09:45:30;;;;;;;0.80;0.80;;;;;;;;;;4938527;29;20051;-27
2023/10/19 09:47:56;;;;;;;0.80;0.80;;;19.50;79.80;;;;;;4938318;29;20449;-27
2023/10/19 09:50:26;;;;;;;2.00;0.90;;;20.60;79.60;;;;;;4938524;29;20429;-27
2023/10/19 09:52:53;;;;;;;1.00;0.90;;;19.70;79.10;;;;;;4938574;29;20055;-26
2023/10/19 09:55:24;;;;;;;0.70;0.70;;;19.50;79.10;;;;;;4938472;29;20387;-26
2023/10/19 09:57:53;;;;;;;0.75;0.75;;;19.30;74.10;;;;;;4937846;29;20103;-27
2023/10/19 10:00:23;;;;;;;1.23;0.90;;;19.90;80.10;;;;;;4938217;29;20083;-27
2023/10/19 10:02:50;;;;;;;0.90;0.90;;;19.40;79.30;;;;;;4938306;29;20130;-27
2023/10/19 10:05:48;;;;;;;0.93;0.85;;;19.60;75.60;;;;;;4938420;29;20075;-27
2023/10/19 10:08:38;;;;;;;1.10;1.00;;;19.80;70.30;;;;;;4935041;29;20413;-27
2023/10/19 10:11:16;;;;;;;0.90;0.90;;;20.70;79.70;;;;;;4928472;29;20111;-27
2023/10/19 10:13:45;;;;;;;0.90;0.80;;;20.80;79.70;;;;;;4937199;29;20059;-27
2023/10/19 10:16:14;;;;;;;1.10;1.00;;;19.60;79.10;;;;;;4937902;29;20110;-27
2023/10/19 10:18:41;;;;;;;1.10;1.00;;;19.10;71.90;;;;;;4937856;29;20054;-27
2023/10/19 10:21:09;;;;;;;1.00;0.90;;;19.70;79.30;;;;;;4937736;29;20047;-27
2023/10/19 10:23:42;;;;;;;0.70;0.70;;;19.70;79.90;;;;;;4937304;29;20052;-26
2023/10/19 10:26:09;;;;;;;1.02;1.00;;;;;;;;;;4937865;29;20573;-29
2023/10/19 10:28:36;;;;;;;0.80;0.80;;;19.60;64.30;;;;;;4937305;29;20081;-26
2023/10/19 10:31:15;;;;;;;1.13;0.98;;;19.70;60.40;;;;;;4937378;29;20059;-29
2023/10/19 10:33:45;;;;;;;1.10;1.00;;;19.60;79.50;;;;;;4937674;29;20134;-26
2023/10/19 10:36:11;;;;;;;1.20;1.00;;;19.70;64.30;;;;;;4937274;29;20123;-27
2023/10/19 10:38:39;;;;;;;0.80;0.80;;;19.20;79.30;;;;;;4937440;29;20099;-26
2023/10/19 10:41:09;;;;;;;0.95;0.93;;;;;;;;;;4937540;29;20055;-28
2023/10/19 10:43:49;;;;;;;0.88;0.88;;;19.40;79.00;;;;;;4936923;29;20178;-26
2023/10/19 10:46:17;;;;;;;0.90;0.88;;;19.70;60.50;;;;;;4935344;29;20051;-29
2023/10/19 10:48:44;;;;;;;1.98;0.90;;;19.40;74.20;;;;;;4939341;29;20044;-26
2023/10/19 10:51:21;;;;;;;0.85;0.85;;;20.10;79.40;;;;;;4937188;29;20052;-26
2023/10/19 10:53:49;;;;;;;1.15;1.00;;;19.70;60.50;;;;;;4933252;29;20043;-27
2023/10/19 10:56:16;;;;;;;0.73;0.70;;;;;;;;;;4934141;29;20491;-28
2023/10/19 10:58:43;;;;;;;1.02;0.80;;;;;;;;;;4933447;29;20323;-27
2023/10/19 11:01:11;;;;;;;0.80;0.80;;;;;;;;;;4933790;29;20099;-27
2023/10/19 11:03:39;;;;;;;0.93;0.80;;;20.60;79.60;;;;;;4933245;29;20130;-27
2023/10/19 11:06:07;;;;;;;1.10;1.00;;;;;;;;;;4935439;29;20048;-28
2023/10/19 11:08:34;;;;;;;2.72;0.90;;;19.70;60.70;;;;;;4935131;29;20403;-27
2023/10/19 11:11:05;;;;;;;0.80;0.80;;;19.70;60.50;;;;;;4931748;29;20107;-27
2023/10/19 11:13:34;;;;;;;0.80;0.80;;;;;;;;;;4925074;29;20052;-28
2023/10/19 11:16:05;;;;;;;0.82;0.82;;;19.60;79.50;;;;;;4925382;29;20719;-27
2023/10/19 11:18:35;;;;;;;1.10;1.00;;;19.10;78.80;;;;;;4926116;29;20047;-27
2023/10/19 11:21:06;;;;;;;0.80;0.80;;;19.70;60.50;;;;;;4935082;29;20058;-27
2023/10/19 11:23:43;;;;;;;0.70;0.70;;;19.70;79.40;;;;;;4930121;29;20071;-27
2023/10/19 11:26:10;;;;;;;1.60;1.10;;;;;;;;;;4932779;29;20047;-27
2023/10/19 11:28:42;;;;;;;1.10;1.00;;;;;;;;;;4934873;29;20394;-27
2023/10/19 11:31:17;;;;;;;0.90;0.90;;;19.70;60.50;;;;;;4935330;29;20055;-26
2023/10/19 11:33:44;;;;;;;0.82;0.82;;;19.70;66.20;;;;;;4934119;29;20138;-27
2023/10/19 11:36:13;;;;;;;0.85;0.85;;;19.60;60.50;;;;;;4069663;28;10001011;-26
2023/10/19 11:38:41;;;;;;;0.70;0.70;;;19.20;73.80;;;;;;4936218;29;20107;-27
2023/10/19 11:41:08;;;;;;;0.93;0.88;;;;;;;;;;4935776;29;20055;-28
2023/10/19 11:43:35;;;;;;;0.85;0.85;;;;;;;;;;4940664;29;20645;-28
2023/10/19 11:46:04;;;;;;;1.75;1.00;;;19.50;78.90;;;;;;4955231;28;20114;-27
2023/10/19 11:48:31;;;;;;;1.02;0.93;;;18.70;67.50;;;;;;4942393;28;20062;-27
2023/10/19 11:50:58;;;;;;;0.90;0.90;;;19.00;79.50;;;;;;4935405;29;20064;-26
2023/10/19 11:53:26;;;;;;;1.08;0.98;;;19.60;60.70;;;;;;4932715;29;20050;-29
2023/10/19 11:55:53;;;;;;;1.00;0.90;;;19.50;79.90;;;;;;4934129;29;20099;-30
2023/10/19 11:58:20;;;;;;;0.82;0.80;;;19.50;72.60;;;;;;4936168;29;20220;-30
2023/10/19 12:00:47;;;;;;;1.02;0.93;;;20.50;65.40;;;;;;4935624;29;20044;-29
2023/10/19 12:03:14;;;;;;;1.08;0.90;;;;;;;;;;4935556;29;20075;-28
2023/10/19 12:05:42;;;;;;;1.40;0.90;;;19.80;79.70;;;;;;4935032;29;20077;-30
2023/10/19 12:08:08;;;;;;;1.10;1.00;;;19.20;79.30;;;;;;4935389;29;20051;-30
2023/10/19 12:10:38;;;;;;;1.10;1.00;;;19.40;79.80;;;;;;4938403;29;20114;-30
2023/10/19 12:13:05;;;;;;;0.82;0.80;;;19.20;66.40;;;;;;4932895;29;20056;-30
2023/10/19 12:15:33;;;;;;;1.95;1.00;;;;;;;;;;4935994;29;20062;-28
2023/10/19 12:18:00;;;;;;;1.10;1.00;;;19.30;79.10;;;;;;4934500;29;20058;-26
2023/10/19 12:20:26;;;;;;;1.10;1.00;;;19.10;64.10;;;;;;4935165;29;20048;-27
2023/10/19 12:22:54;;;;;;;1.10;1.00;;;19.20;79.20;;;;;;4934567;29;20054;-26
2023/10/19 12:25:28;;;;;;;1.08;1.00;;;19.40;79.20;;;;;;4934984;29;20055;-27
2023/10/19 12:27:57;;;;;;;1.85;0.93;;;20.30;70.60;;;;;;4934631;29;20489;-27
2023/10/19 12:30:26;;;;;;;1.10;1.00;;;19.20;80.00;;;;;;4934659;29;20557;-26
2023/10/19 12:32:53;;;;;;;1.13;1.02;;;;;;;;;;4934665;29;20058;-29
2023/10/19 12:35:24;;;;;;;0.88;0.88;;;19.20;75.50;;;;;;4935086;29;20097;-27
2023/10/19 12:37:52;;;;;;;0.95;0.90;;;;;;;;;;4934354;29;20110;-29
2023/10/19 12:40:29;;;;;;;0.82;0.82;;;;;;;;;;4933726;29;20047;-27
2023/10/19 12:42:57;;;;;;;1.15;1.00;;;19.00;80.20;;;;;;4935265;29;20052;-26
2023/10/19 12:45:25;;;;;;;0.93;0.93;;;19.00;80.00;;;;;;4935051;29;20130;-26
2023/10/19 12:47:52;;;;;;;1.35;1.20;;;18.90;80.20;;;;;;4935399;29;20055;-26
2023/10/19 12:50:22;;;;;;;0.90;0.90;;;19.60;79.90;;;;;;4934668;29;20047;-26
2023/10/19 12:52:49;;;;;;;2.05;1.10;;;19.00;79.30;;;;;;4934707;29;20139;-26
2023/10/19 12:55:17;;;;;;;1.20;0.93;;;19.10;79.90;;;;;;4934878;29;20568;-29
2023/10/19 12:57:44;;;;;;;1.48;1.10;;;;;;;;;;4935144;29;20401;-29
2023/10/19 13:00:25;;;;;;;1.20;1.10;;;19.20;80.10;;;;;;4935268;29;20051;-30
2023/10/19 13:02:59;;;;;;;1.75;1.00;;;19.30;80.10;;;;;;4935030;29;20056;-29
2023/10/19 13:05:27;;;;;;;1.33;0.95;;;19.00;72.40;;;;;;4951306;29;20083;-29
2023/10/19 13:07:58;;;;;;;2.90;1.23;;;;;;;;;;4953897;28;20051;-28
2023/10/19 13:10:28;;;;;;;3.38;1.50;;;19.90;79.00;;;;;;4954179;28;20130;-30
2023/10/19 13:12:55;;;;;;;3.17;1.05;;;19.50;80.20;;;;;;4954253;28;20439;-26
2023/10/19 13:15:28;;;;;;;1.20;1.10;;;19.50;61.20;;;;;;4928215;28;20577;-29
2023/10/19 13:17:55;;;;;;;1.73;1.30;;;19.70;80.80;;;;;;4933455;29;20052;-26